createdAt,value
2022-10-11T00:02:05.010Z,27.63
2022-10-11T00:04:31.266Z,28.13
2022-10-11T00:06:57.542Z,30.83
2022-10-11T00:09:23.908Z,31.55
2022-10-11T00:11:50.196Z,31.60
2022-10-11T00:14:16.459Z,37.95
2022-10-11T00:16:44.433Z,37.00
2022-10-11T00:19:11.299Z,30.85
2022-10-11T00:21:37.725Z,32.90
2022-10-11T00:24:04.217Z,36.65
2022-10-11T00:26:30.498Z,35.28
2022-10-11T00:28:56.948Z,32.75
2022-10-11T00:31:23.604Z,33.38
2022-10-11T00:33:49.892Z,38.95
2022-10-11T00:36:17.399Z,39.53
2022-10-11T00:38:44.097Z,40.20
2022-10-11T00:41:10.785Z,38.42
2022-10-11T00:43:37.158Z,44.58
2022-10-11T00:46:18.695Z,34.03
2022-10-11T00:48:47.522Z,36.65
2022-10-11T00:51:13.764Z,36.00
2022-10-11T00:53:40.381Z,37.53
2022-10-11T00:56:09.793Z,37.72
2022-10-11T00:58:36.310Z,35.53
2022-10-11T01:01:03.184Z,42.45
2022-10-11T01:03:30.316Z,34.88
2022-10-11T01:05:56.669Z,36.10
2022-10-11T01:08:23.201Z,38.95
2022-10-11T01:10:49.461Z,34.70
2022-10-11T01:13:34.685Z,34.60
2022-10-11T01:16:04.182Z,36.80
2022-10-11T01:18:35.420Z,30.52
2022-10-11T01:21:07.138Z,26.02
2022-10-11T01:23:33.394Z,27.15
2022-10-11T01:26:14.849Z,24.15
2022-10-11T01:28:43.433Z,23.98
2022-10-11T01:31:23.017Z,22.13
2022-10-11T01:33:58.952Z,19.85
2022-10-11T01:36:33.590Z,19.88
2022-10-11T01:39:03.980Z,18.05
2022-10-11T01:41:42.316Z,18.48
2022-10-11T01:44:09.314Z,18.35
2022-10-11T01:46:36.252Z,15.45
2022-10-11T01:49:04.356Z,12.60
2022-10-11T01:51:47.293Z,15.25
2022-10-11T01:54:19.937Z,11.73
2022-10-11T01:56:46.199Z,11.70
2022-10-11T01:59:21.652Z,12.02
2022-10-11T02:01:47.968Z,15.88
2022-10-11T02:04:17.256Z,10.88
2022-10-11T02:06:48.953Z,9.25
2022-10-11T02:09:19.946Z,11.30
2022-10-11T02:11:46.517Z,13.30
2022-10-11T02:14:15.422Z,9.65
2022-10-11T02:16:43.712Z,13.18
2022-10-11T02:19:11.717Z,11.98
2022-10-11T02:21:39.460Z,10.30
2022-10-11T02:24:08.189Z,9.80
2022-10-11T02:26:34.726Z,8.73
2022-10-11T02:29:03.885Z,11.88
2022-10-11T02:31:31.098Z,12.85
2022-10-11T02:34:05.693Z,12.00
2022-10-11T02:36:38.923Z,9.82
2022-10-11T02:39:07.713Z,8.40
2022-10-11T02:41:38.673Z,8.23
2022-10-11T02:44:07.714Z,13.18
2022-10-11T02:46:34.394Z,14.27
2022-10-11T02:49:00.752Z,9.25
2022-10-11T02:51:29.499Z,9.55
2022-10-11T02:53:55.789Z,11.38
2022-10-11T02:56:22.049Z,10.52
2022-10-11T02:58:48.704Z,8.30
2022-10-11T03:01:15.164Z,11.57
2022-10-11T03:03:41.686Z,11.02
2022-10-11T03:06:08.680Z,17.92
2022-10-11T03:08:35.224Z,11.55
2022-10-11T03:11:01.654Z,9.23
2022-10-11T03:13:27.969Z,12.60
2022-10-11T03:16:02.632Z,8.73
2022-10-11T03:18:30.612Z,7.40
2022-10-11T03:20:56.910Z,8.88
2022-10-11T03:23:23.234Z,10.63
2022-10-11T03:25:51.930Z,8.93
2022-10-11T03:28:18.653Z,10.70
2022-10-11T03:30:46.869Z,9.23
2022-10-11T03:33:13.166Z,8.43
2022-10-11T03:35:40.554Z,8.70
2022-10-11T03:38:10.076Z,9.88
2022-10-11T03:40:38.558Z,10.88
2022-10-11T03:43:04.826Z,9.48
2022-10-11T03:45:31.092Z,11.65
2022-10-11T03:47:57.624Z,14.32
2022-10-11T03:50:24.658Z,10.63
2022-10-11T03:52:51.010Z,11.57
2022-10-11T03:55:17.340Z,14.93
2022-10-11T03:57:43.665Z,8.85
2022-10-11T04:00:10.178Z,12.15
2022-10-11T04:02:39.171Z,8.65
2022-10-11T04:05:06.406Z,8.05
2022-10-11T04:07:33.167Z,13.88
2022-10-11T04:09:59.591Z,8.98
2022-10-11T04:12:25.878Z,13.20
2022-10-11T04:14:52.208Z,10.88
2022-10-11T04:17:18.504Z,16.65
2022-10-11T04:19:44.781Z,9.15
2022-10-11T04:22:11.045Z,10.93
2022-10-11T04:24:37.340Z,15.68
2022-10-11T04:27:03.658Z,17.35
2022-10-11T04:29:32.527Z,7.72
2022-10-11T04:31:59.366Z,13.15
2022-10-11T04:34:25.708Z,9.13
2022-10-11T04:36:51.993Z,12.82
2022-10-11T04:39:18.361Z,14.27
2022-10-11T04:41:44.660Z,12.55
2022-10-11T04:44:10.929Z,11.13
2022-10-11T04:46:37.196Z,9.27
2022-10-11T04:49:03.495Z,11.25
2022-10-11T04:51:30.275Z,10.35
2022-10-11T04:53:56.724Z,11.13
2022-10-11T04:56:22.987Z,11.75
2022-10-11T04:58:49.515Z,10.00
2022-10-11T05:01:15.965Z,10.88
2022-10-11T05:03:42.274Z,11.88
2022-10-11T05:06:08.848Z,15.02
2022-10-11T05:08:35.450Z,11.95
2022-10-11T05:11:03.869Z,8.82
2022-10-11T05:13:31.089Z,13.10
2022-10-11T05:15:57.821Z,8.68
2022-10-11T05:18:24.462Z,14.40
2022-10-11T05:21:03.277Z,9.60
2022-10-11T05:23:30.514Z,9.75
2022-10-11T05:25:57.101Z,16.45
2022-10-11T05:28:23.396Z,13.70
2022-10-11T05:30:49.756Z,10.27
2022-10-11T05:33:16.038Z,10.80
2022-10-11T05:35:42.409Z,10.32
2022-10-11T05:38:08.672Z,9.43
2022-10-11T05:40:36.337Z,7.43
2022-10-11T05:43:02.704Z,13.52
2022-10-11T05:45:28.975Z,11.38
2022-10-11T05:47:55.236Z,10.77
2022-10-11T05:50:24.299Z,14.88
2022-10-11T05:52:50.889Z,9.65
2022-10-11T05:55:17.190Z,11.82
2022-10-11T05:57:44.288Z,10.02
2022-10-11T06:00:10.751Z,9.82
2022-10-11T06:02:40.123Z,14.50
2022-10-11T06:05:06.497Z,10.10
2022-10-11T06:07:32.805Z,9.68
2022-10-11T06:09:59.082Z,14.45
2022-10-11T06:12:25.396Z,12.45
2022-10-11T06:14:51.681Z,9.48
2022-10-11T06:17:18.049Z,12.70
2022-10-11T06:19:44.398Z,9.57
2022-10-11T06:22:11.403Z,11.77
2022-10-11T06:24:37.742Z,9.40
2022-10-11T06:27:04.175Z,16.30
2022-10-11T06:29:30.610Z,12.75
2022-10-11T06:31:56.916Z,11.98
2022-10-11T06:34:23.232Z,11.73
2022-10-11T06:36:49.526Z,14.75
2022-10-11T06:39:15.843Z,10.18
2022-10-11T06:41:42.194Z,14.75
2022-10-11T06:44:14.010Z,9.73
2022-10-11T06:46:40.773Z,11.02
2022-10-11T06:49:07.209Z,10.25
2022-10-11T06:51:35.284Z,10.30
2022-10-11T06:54:01.803Z,11.60
2022-10-11T06:56:29.276Z,12.63
2022-10-11T06:58:56.449Z,9.60
2022-10-11T07:01:23.642Z,11.50
2022-10-11T07:03:51.245Z,14.23
2022-10-11T07:06:19.264Z,8.63
2022-10-11T07:08:45.993Z,8.48
2022-10-11T07:11:13.792Z,10.32
2022-10-11T07:13:40.524Z,13.38
2022-10-11T07:16:08.593Z,7.95
2022-10-11T07:18:35.413Z,8.75
2022-10-11T07:21:06.144Z,8.48
2022-10-11T07:23:32.699Z,8.13
2022-10-11T07:25:59.140Z,9.05
2022-10-11T07:28:25.676Z,8.20
2022-10-11T07:30:52.081Z,10.20
2022-10-11T07:33:18.421Z,8.55
2022-10-11T07:35:48.224Z,8.68
2022-10-11T07:38:15.154Z,11.77
2022-10-11T07:40:42.765Z,8.88
2022-10-11T07:43:09.469Z,7.75
2022-10-11T07:45:39.267Z,9.30
2022-10-11T07:48:06.013Z,9.23
2022-10-11T07:50:32.845Z,7.90
2022-10-11T07:52:59.184Z,6.63
2022-10-11T07:55:27.386Z,10.65
2022-10-11T07:57:56.961Z,10.48
2022-10-11T08:00:23.856Z,11.90
2022-10-11T08:02:50.241Z,10.30
2022-10-11T08:05:16.563Z,10.25
2022-10-11T08:07:42.911Z,7.60
2022-10-11T08:10:09.539Z,7.57
2022-10-11T08:12:35.899Z,8.48
2022-10-11T08:15:02.233Z,10.30
2022-10-11T08:17:29.444Z,10.45
2022-10-11T08:19:55.847Z,11.30
2022-10-11T08:22:22.208Z,6.95
2022-10-11T08:24:49.056Z,7.93
2022-10-11T08:27:15.366Z,6.70
2022-10-11T08:29:41.668Z,5.53
2022-10-11T08:32:11.783Z,6.07
2022-10-11T08:34:38.238Z,6.57
2022-10-11T08:37:04.566Z,5.28
2022-10-11T08:39:30.935Z,8.88
2022-10-11T08:42:00.206Z,8.73
2022-10-11T08:45:09.079Z,8.57
2022-10-11T08:47:32.994Z,6.18
2022-10-11T08:49:59.781Z,9.55
2022-10-11T08:52:28.062Z,7.25
2022-10-11T08:55:13.195Z,7.28
2022-10-11T08:57:40.084Z,7.57
2022-10-11T09:00:07.429Z,8.02
2022-10-11T09:03:09.228Z,6.30
2022-10-11T09:05:39.390Z,5.43
2022-10-11T09:08:05.729Z,5.63
2022-10-11T09:10:31.968Z,8.32
2022-10-11T09:13:16.998Z,8.75
2022-10-11T09:15:58.888Z,6.85
2022-10-11T09:18:49.645Z,7.60
2022-10-11T09:21:34.386Z,7.50
2022-10-11T09:24:03.664Z,7.90
2022-10-11T09:26:45.320Z,6.65
2022-10-11T09:29:11.672Z,8.30
2022-10-11T09:31:38.013Z,9.70
2022-10-11T09:34:12.365Z,12.52
2022-10-11T09:36:46.870Z,8.70
2022-10-11T09:39:33.741Z,8.55
2022-10-11T09:42:01.660Z,6.32
2022-10-11T09:44:29.328Z,7.57
2022-10-11T09:46:56.256Z,6.88
2022-10-11T09:49:24.660Z,5.15
2022-10-11T09:51:52.486Z,6.45
2022-10-11T09:54:22.178Z,8.38
2022-10-11T09:56:48.537Z,6.82
2022-10-11T09:59:27.078Z,5.18
2022-10-11T10:02:06.743Z,5.93
2022-10-11T10:04:33.139Z,9.32
2022-10-11T10:07:10.163Z,7.20
2022-10-11T10:09:36.537Z,6.68
2022-10-11T10:12:10.775Z,7.30
2022-10-11T10:14:37.049Z,6.65
2022-10-11T10:17:05.285Z,4.70
2022-10-11T10:19:39.905Z,5.43
2022-10-11T10:22:18.661Z,5.53
2022-10-11T10:24:45.129Z,6.00
2022-10-11T10:27:16.945Z,5.45
2022-10-11T10:29:44.065Z,5.45
2022-10-11T10:32:16.350Z,6.35
2022-10-11T10:34:56.681Z,6.63
2022-10-11T10:37:26.076Z,4.97
2022-10-11T10:40:02.387Z,6.82
2022-10-11T10:42:28.768Z,6.47
2022-10-11T10:44:56.892Z,5.68
2022-10-11T10:47:28.977Z,5.28
2022-10-11T10:50:00.370Z,6.15
2022-10-11T10:52:45.424Z,5.47
2022-10-11T10:55:33.807Z,5.78
2022-10-11T10:58:00.036Z,5.05
2022-10-11T11:00:28.431Z,4.82
2022-10-11T11:02:55.050Z,8.40
2022-10-11T11:05:27.773Z,5.25
2022-10-11T11:08:06.297Z,8.87
2022-10-11T11:10:41.970Z,5.10
2022-10-11T11:13:33.789Z,8.50
2022-10-11T11:16:12.405Z,5.30
2022-10-11T11:18:47.083Z,6.10
2022-10-11T11:21:32.241Z,6.13
2022-10-11T11:24:07.926Z,4.55
2022-10-11T11:26:34.179Z,6.20
2022-10-11T11:29:26.722Z,6.30
2022-10-11T11:32:05.107Z,6.55
2022-10-11T11:34:33.997Z,4.50
2022-10-11T11:37:03.521Z,7.78
2022-10-11T11:39:33.658Z,5.72
2022-10-11T11:42:04.193Z,6.00
2022-10-11T11:44:33.569Z,4.82
2022-10-11T11:47:02.820Z,6.10
2022-10-11T11:49:31.948Z,6.35
2022-10-11T11:51:59.061Z,5.65
2022-10-11T11:54:44.146Z,6.65
2022-10-11T11:57:19.756Z,7.95
2022-10-11T11:59:58.508Z,5.53
2022-10-11T12:02:32.460Z,8.00
2022-10-11T12:04:59.184Z,6.72
2022-10-11T12:07:26.450Z,4.43
2022-10-11T12:09:54.359Z,7.63
2022-10-11T12:12:31.851Z,6.85
2022-10-11T12:15:04.397Z,5.95
2022-10-11T12:17:31.071Z,4.70
2022-10-11T12:20:03.482Z,7.72
2022-10-11T12:22:29.761Z,4.45
2022-10-11T12:25:22.413Z,3.80
2022-10-11T12:27:50.277Z,7.13
2022-10-11T12:30:35.525Z,5.13
2022-10-11T12:33:15.362Z,5.53
2022-10-11T12:35:51.170Z,5.53
2022-10-11T12:38:39.247Z,5.85
2022-10-11T12:41:08.566Z,6.07
2022-10-11T12:43:36.225Z,6.47
2022-10-11T12:46:21.229Z,5.65
2022-10-11T12:48:51.769Z,5.93
2022-10-11T12:51:21.368Z,4.72
2022-10-11T12:54:25.553Z,5.78
2022-10-11T12:57:02.945Z,5.35
2022-10-11T12:59:31.025Z,7.00
2022-10-11T13:02:00.388Z,6.32
2022-10-11T13:04:29.108Z,4.97
2022-10-11T13:06:56.894Z,7.10
2022-10-11T13:09:32.557Z,5.43
2022-10-11T13:12:03.975Z,7.40
2022-10-11T13:14:32.047Z,7.25
2022-10-11T13:17:06.997Z,4.40
2022-10-11T13:19:34.860Z,6.68
2022-10-11T13:22:06.392Z,6.18
2022-10-11T13:24:39.560Z,6.65
2022-10-11T13:27:06.422Z,7.30
2022-10-11T13:29:33.630Z,4.15
2022-10-11T13:32:08.172Z,5.70
2022-10-11T13:34:37.419Z,5.75
2022-10-11T13:37:03.752Z,5.55
2022-10-11T13:39:31.684Z,4.88
2022-10-11T13:41:59.090Z,5.07
2022-10-11T13:44:25.761Z,6.07
2022-10-11T13:46:52.488Z,7.90
2022-10-11T13:49:37.617Z,8.13
2022-10-11T13:52:24.223Z,8.10
2022-10-11T13:54:58.061Z,5.43
2022-10-11T13:57:32.587Z,6.32
2022-10-11T13:59:59.060Z,7.30
2022-10-11T14:02:26.217Z,9.18
2022-10-11T14:04:52.477Z,6.32
2022-10-11T14:07:26.613Z,4.50
2022-10-11T14:12:22.486Z,7.25
2022-10-11T14:14:48.786Z,7.30
2022-10-11T14:17:22.097Z,7.10
2022-10-11T14:20:07.280Z,6.63
2022-10-11T14:22:36.534Z,5.50
2022-10-11T14:25:02.904Z,8.98
2022-10-11T14:27:29.591Z,5.90
2022-10-11T14:30:23.557Z,6.50
2022-10-11T14:32:42.336Z,7.63
2022-10-11T14:35:16.630Z,6.68
2022-10-11T14:37:43.150Z,8.07
2022-10-11T14:40:13.934Z,8.48
2022-10-11T14:42:40.200Z,5.43
2022-10-11T14:45:06.790Z,7.10
2022-10-11T14:47:33.143Z,9.82
2022-10-11T14:49:59.405Z,7.15
2022-10-11T14:52:25.685Z,6.55
2022-10-11T14:54:51.993Z,4.60
2022-10-11T14:57:18.301Z,7.75
2022-10-11T14:59:44.586Z,6.68
2022-10-11T15:02:11.475Z,7.63
2022-10-11T15:04:37.924Z,6.28
2022-10-11T15:07:04.526Z,9.82
2022-10-11T15:09:30.997Z,3.85
2022-10-11T15:11:57.738Z,7.45
2022-10-11T15:14:24.470Z,6.93
2022-10-11T15:16:50.795Z,8.80
2022-10-11T15:19:18.693Z,5.65
2022-10-11T15:21:45.413Z,5.60
2022-10-11T15:24:11.726Z,6.70
2022-10-11T15:26:38.097Z,7.28
2022-10-11T15:29:04.433Z,9.68
2022-10-11T15:31:30.704Z,7.10
2022-10-11T15:33:59.488Z,7.20
2022-10-11T15:36:26.174Z,6.03
2022-10-11T15:38:52.433Z,6.82
2022-10-11T15:41:19.793Z,9.55
2022-10-11T15:43:46.969Z,4.82
2022-10-11T15:46:14.832Z,11.75
2022-10-11T15:48:41.148Z,7.97
2022-10-11T15:51:07.401Z,5.32
2022-10-11T15:53:33.725Z,6.30
2022-10-11T15:56:08.653Z,8.98
2022-10-11T15:58:36.587Z,10.07
2022-10-11T16:01:12.297Z,8.80
2022-10-11T16:03:38.648Z,7.40
2022-10-11T16:06:05.878Z,7.30
2022-10-11T16:08:32.830Z,6.53
2022-10-11T16:10:59.373Z,9.88
2022-10-11T16:13:25.675Z,6.95
2022-10-11T16:15:52.090Z,11.15
2022-10-11T16:18:20.760Z,7.30
2022-10-11T16:20:48.010Z,6.65
2022-10-11T16:23:14.593Z,11.13
2022-10-11T16:25:41.261Z,7.82
2022-10-11T16:28:07.993Z,7.60
2022-10-11T16:30:35.212Z,8.30
2022-10-11T16:33:01.461Z,7.43
2022-10-11T16:35:32.251Z,11.82
2022-10-11T16:37:59.213Z,9.48
2022-10-11T16:40:27.543Z,10.38
2022-10-11T16:42:53.801Z,7.90
2022-10-11T16:45:20.144Z,7.72
2022-10-11T16:47:46.480Z,9.02
2022-10-11T16:50:13.165Z,8.77
2022-10-11T16:52:39.476Z,6.90
2022-10-11T16:55:06.105Z,7.55
2022-10-11T16:57:32.499Z,9.45
2022-10-11T16:59:58.770Z,7.13
2022-10-11T17:02:31.399Z,7.53
2022-10-11T17:04:58.719Z,11.95
2022-10-11T17:07:25.009Z,9.23
2022-10-11T17:09:51.397Z,10.20
2022-10-11T17:12:19.115Z,12.65
2022-10-11T17:14:45.496Z,9.65
2022-10-11T17:17:12.169Z,10.40
2022-10-11T17:19:45.006Z,13.27
2022-10-11T17:22:12.313Z,10.30
2022-10-11T17:24:39.085Z,10.40
2022-10-11T17:27:06.165Z,12.07
2022-10-11T17:29:32.548Z,16.48
2022-10-11T17:31:58.913Z,14.93
2022-10-11T17:34:25.208Z,18.77
2022-10-11T17:36:51.730Z,17.95
2022-10-11T17:39:19.278Z,25.00
2022-10-11T17:41:45.593Z,40.72
2022-10-11T17:44:12.403Z,29.13
2022-10-11T17:46:38.854Z,35.53
2022-10-11T17:49:06.520Z,17.27
2022-10-11T17:51:33.581Z,14.98
2022-10-11T17:54:00.027Z,11.80
2022-10-11T17:56:29.678Z,14.55
2022-10-11T17:58:58.226Z,21.38
2022-10-11T18:01:25.973Z,15.05
2022-10-11T18:03:53.383Z,11.38
2022-10-11T18:06:19.672Z,12.63
2022-10-11T18:08:46.062Z,10.18
2022-10-11T18:11:13.418Z,11.30
2022-10-11T18:13:42.637Z,13.35
2022-10-11T18:16:09.922Z,16.15
2022-10-11T18:18:36.513Z,12.82
2022-10-11T18:21:03.157Z,13.80
2022-10-11T18:23:29.433Z,15.20
2022-10-11T18:25:55.718Z,16.50
2022-10-11T18:28:22.059Z,10.80
2022-10-11T18:30:48.617Z,12.35
2022-10-11T18:33:15.389Z,18.73
2022-10-11T18:35:41.996Z,14.02
2022-10-11T18:38:08.673Z,15.82
2022-10-11T18:40:41.269Z,18.20
2022-10-11T18:43:09.815Z,16.98
2022-10-11T18:45:36.107Z,13.23
2022-10-11T18:48:02.505Z,14.48
2022-10-11T18:50:28.758Z,19.92
2022-10-11T18:52:55.049Z,14.85
2022-10-11T18:55:21.372Z,13.40
2022-10-11T18:57:47.743Z,12.60
2022-10-11T19:00:37.720Z,10.40
2022-10-11T19:03:00.605Z,13.70
2022-10-11T19:05:27.593Z,12.73
2022-10-11T19:07:53.858Z,12.43
2022-10-11T19:10:20.131Z,12.82
2022-10-11T19:12:46.402Z,13.82
2022-10-11T19:15:12.770Z,11.70
2022-10-11T19:17:39.132Z,16.90
2022-10-11T19:20:05.903Z,14.00
2022-10-11T19:22:32.169Z,14.40
2022-10-11T19:24:58.425Z,13.68
2022-10-11T19:27:24.836Z,14.85
2022-10-11T19:29:51.126Z,15.82
2022-10-11T19:32:17.384Z,18.90
2022-10-11T19:34:43.691Z,16.58
2022-10-11T19:37:13.349Z,15.55
2022-10-11T19:39:40.062Z,14.55
2022-10-11T19:42:06.333Z,15.27
2022-10-11T19:44:37.159Z,16.77
2022-10-11T19:47:05.893Z,15.77
2022-10-11T19:49:32.184Z,11.15
2022-10-11T19:51:58.475Z,16.00
2022-10-11T19:54:24.957Z,12.25
2022-10-11T19:56:51.296Z,9.77
2022-10-11T19:59:17.678Z,10.90
2022-10-11T20:01:49.417Z,16.40
2022-10-11T20:04:39.452Z,12.20
2022-10-11T20:07:04.213Z,11.38
2022-10-11T20:09:31.070Z,14.75
2022-10-11T20:11:57.706Z,15.52
2022-10-11T20:14:24.209Z,14.10
2022-10-11T20:16:50.690Z,9.85
2022-10-11T20:19:17.431Z,14.25
2022-10-11T20:21:43.931Z,12.25
2022-10-11T20:24:10.321Z,11.68
2022-10-11T20:26:36.719Z,13.27
2022-10-11T20:29:03.262Z,12.65
2022-10-11T20:31:33.204Z,12.40
2022-10-11T20:34:04.833Z,11.38
2022-10-11T20:36:31.653Z,11.85
2022-10-11T20:38:58.933Z,14.80
2022-10-11T20:41:26.578Z,12.18
2022-10-11T20:43:54.206Z,14.55
2022-10-11T20:46:21.838Z,11.18
2022-10-11T20:48:49.471Z,16.67
2022-10-11T20:51:15.786Z,12.35
2022-10-11T20:53:42.162Z,13.38
2022-10-11T20:56:10.170Z,10.30
2022-10-11T20:58:36.491Z,12.02
2022-10-11T21:01:09.229Z,13.57
2022-10-11T21:03:35.756Z,15.00
2022-10-11T21:06:02.077Z,13.65
2022-10-11T21:10:55.604Z,11.05
2022-10-11T21:13:22.058Z,15.07
2022-10-11T21:15:48.411Z,10.27
2022-10-11T21:18:14.856Z,7.45
2022-10-11T21:20:41.800Z,9.27
2022-10-11T21:23:08.512Z,11.55
2022-10-11T21:25:35.272Z,9.88
2022-10-11T21:28:01.709Z,13.38
2022-10-11T21:30:27.984Z,11.80
2022-10-11T21:32:57.490Z,12.40
2022-10-11T21:35:24.321Z,11.80
2022-10-11T21:37:50.625Z,14.43
2022-10-11T21:40:16.968Z,15.85
2022-10-11T21:42:43.226Z,12.65
2022-10-11T21:45:09.507Z,11.15
2022-10-11T21:47:39.017Z,9.93
2022-10-11T21:50:05.949Z,10.77
2022-10-11T21:52:32.375Z,11.40
2022-10-11T21:54:58.764Z,14.55
2022-10-11T21:57:25.025Z,16.52
2022-10-11T21:59:51.301Z,12.75
2022-10-11T22:02:17.560Z,8.43
2022-10-11T22:04:43.823Z,11.82
2022-10-11T22:07:10.117Z,11.27
2022-10-11T22:09:36.381Z,13.60
2022-10-11T22:12:03.493Z,9.10
2022-10-11T22:14:30.364Z,8.75
2022-10-11T22:16:56.728Z,10.80
2022-10-11T22:19:23.445Z,9.93
2022-10-11T22:21:49.853Z,12.75
2022-10-11T22:24:16.651Z,10.18
2022-10-11T22:26:42.990Z,12.20
2022-10-11T22:29:09.553Z,13.43
2022-10-11T22:31:35.827Z,8.93
2022-10-11T22:34:02.136Z,14.52
2022-10-11T22:36:30.278Z,10.88
2022-10-11T22:38:56.956Z,8.18
2022-10-11T22:41:23.550Z,9.18
2022-10-11T22:43:49.892Z,17.05
2022-10-11T22:46:16.439Z,11.20
2022-10-11T22:48:43.212Z,9.40
2022-10-11T22:51:09.530Z,11.10
2022-10-11T22:53:35.786Z,13.30
2022-10-11T22:56:02.069Z,11.20
2022-10-11T22:58:28.329Z,10.23
2022-10-11T23:00:54.617Z,14.65
2022-10-11T23:03:20.989Z,11.10
2022-10-11T23:05:54.386Z,13.40
2022-10-11T23:08:20.684Z,12.07
2022-10-11T23:10:47.001Z,9.48
2022-10-11T23:13:13.282Z,11.65
2022-10-11T23:15:40.397Z,10.45
2022-10-11T23:18:06.756Z,9.25
2022-10-11T23:20:33.064Z,10.77
2022-10-11T23:22:59.361Z,12.93
2022-10-11T23:25:25.668Z,12.73
2022-10-11T23:27:51.951Z,10.00
2022-10-11T23:30:18.204Z,9.82
2022-10-11T23:32:44.504Z,12.82
2022-10-11T23:35:10.809Z,10.15
2022-10-11T23:37:37.273Z,9.50
2022-10-11T23:40:04.122Z,8.60
2022-10-11T23:42:30.388Z,11.40
2022-10-11T23:44:56.688Z,8.63
2022-10-11T23:47:22.947Z,10.20
2022-10-11T23:49:49.212Z,10.48
2022-10-11T23:52:15.501Z,11.75
2022-10-11T23:54:41.781Z,11.65
2022-10-11T23:57:08.037Z,10.88
2022-10-11T23:59:34.340Z,7.15
